sensor_id;sensor_type;location;lat;lon;timestamp;P1;durP1;ratioP1;P2;durP2;ratioP2
72864;SDS011;61000;48.120;11.548;2023-08-30T00:02:18;22.75;;;15.15;;
72864;SDS011;61000;48.120;11.548;2023-08-30T00:04:45;23.90;;;15.82;;
72864;SDS011;61000;48.120;11.548;2023-08-30T00:07:12;22.13;;;15.57;;
72864;SDS011;61000;48.120;11.548;2023-08-30T00:09:38;22.98;;;14.88;;
72864;SDS011;61000;48.120;11.548;2023-08-30T00:12:07;22.60;;;15.15;;
72864;SDS011;61000;48.120;11.548;2023-08-30T00:14:34;23.85;;;15.27;;
72864;SDS011;61000;48.120;11.548;2023-08-30T00:17:01;21.83;;;15.45;;
72864;SDS011;61000;48.120;11.548;2023-08-30T00:19:28;21.38;;;14.45;;
72864;SDS011;61000;48.120;11.548;2023-08-30T00:21:55;22.10;;;14.48;;
72864;SDS011;61000;48.120;11.548;2023-08-30T00:24:23;21.20;;;14.10;;
72864;SDS011;61000;48.120;11.548;2023-08-30T00:26:50;24.17;;;15.73;;
72864;SDS011;61000;48.120;11.548;2023-08-30T00:29:18;23.23;;;15.20;;
72864;SDS011;61000;48.120;11.548;2023-08-30T00:31:45;25.83;;;15.45;;
72864;SDS011;61000;48.120;11.548;2023-08-30T00:34:11;20.67;;;14.13;;
72864;SDS011;61000;48.120;11.548;2023-08-30T00:36:39;21.30;;;14.98;;
72864;SDS011;61000;48.120;11.548;2023-08-30T00:39:05;26.42;;;14.35;;
72864;SDS011;61000;48.120;11.548;2023-08-30T00:41:33;20.15;;;14.52;;
72864;SDS011;61000;48.120;11.548;2023-08-30T00:44:00;21.98;;;14.98;;
72864;SDS011;61000;48.120;11.548;2023-08-30T00:46:29;24.52;;;14.05;;
72864;SDS011;61000;48.120;11.548;2023-08-30T00:48:57;21.73;;;14.25;;
72864;SDS011;61000;48.120;11.548;2023-08-30T00:51:24;21.45;;;15.23;;
72864;SDS011;61000;48.120;11.548;2023-08-30T00:53:52;19.48;;;14.00;;
72864;SDS011;61000;48.120;11.548;2023-08-30T00:56:20;20.83;;;14.73;;
72864;SDS011;61000;48.120;11.548;2023-08-30T00:58:48;19.42;;;13.40;;
72864;SDS011;61000;48.120;11.548;2023-08-30T01:01:16;22.33;;;14.38;;
72864;SDS011;61000;48.120;11.548;2023-08-30T01:03:45;18.90;;;14.02;;
72864;SDS011;61000;48.120;11.548;2023-08-30T01:06:13;21.83;;;14.32;;
72864;SDS011;61000;48.120;11.548;2023-08-30T01:08:40;18.30;;;12.95;;
72864;SDS011;61000;48.120;11.548;2023-08-30T01:11:09;18.30;;;12.68;;
72864;SDS011;61000;48.120;11.548;2023-08-30T01:13:47;19.20;;;12.80;;
72864;SDS011;61000;48.120;11.548;2023-08-30T01:16:19;21.60;;;13.00;;
72864;SDS011;61000;48.120;11.548;2023-08-30T01:18:53;17.52;;;13.10;;
72864;SDS011;61000;48.120;11.548;2023-08-30T01:21:32;18.92;;;12.98;;
72864;SDS011;61000;48.120;11.548;2023-08-30T01:24:08;19.95;;;13.57;;
72864;SDS011;61000;48.120;11.548;2023-08-30T01:26:41;17.38;;;12.50;;
72864;SDS011;61000;48.120;11.548;2023-08-30T01:29:16;17.02;;;12.07;;
72864;SDS011;61000;48.120;11.548;2023-08-30T01:31:44;16.85;;;12.00;;
72864;SDS011;61000;48.120;11.548;2023-08-30T01:34:13;16.10;;;11.45;;
72864;SDS011;61000;48.120;11.548;2023-08-30T01:36:41;16.15;;;12.25;;
72864;SDS011;61000;48.120;11.548;2023-08-30T01:39:09;18.77;;;12.40;;
72864;SDS011;61000;48.120;11.548;2023-08-30T01:41:37;15.68;;;11.55;;
72864;SDS011;61000;48.120;11.548;2023-08-30T01:44:05;18.75;;;11.98;;
72864;SDS011;61000;48.120;11.548;2023-08-30T01:46:34;17.30;;;11.90;;
72864;SDS011;61000;48.120;11.548;2023-08-30T01:49:01;15.68;;;11.15;;
72864;SDS011;61000;48.120;11.548;2023-08-30T01:51:30;16.42;;;11.48;;
72864;SDS011;61000;48.120;11.548;2023-08-30T01:54:01;17.75;;;12.25;;
72864;SDS011;61000;48.120;11.548;2023-08-30T01:56:29;17.83;;;12.35;;
72864;SDS011;61000;48.120;11.548;2023-08-30T01:58:56;15.57;;;11.32;;
72864;SDS011;61000;48.120;11.548;2023-08-30T02:01:23;19.45;;;11.70;;
72864;SDS011;61000;48.120;11.548;2023-08-30T02:03:52;16.92;;;10.93;;
72864;SDS011;61000;48.120;11.548;2023-08-30T02:06:21;14.90;;;10.93;;
72864;SDS011;61000;48.120;11.548;2023-08-30T02:08:52;17.55;;;12.00;;
72864;SDS011;61000;48.120;11.548;2023-08-30T02:11:22;14.75;;;10.90;;
72864;SDS011;61000;48.120;11.548;2023-08-30T02:13:54;16.40;;;11.80;;
72864;SDS011;61000;48.120;11.548;2023-08-30T02:16:24;14.00;;;11.35;;
72864;SDS011;61000;48.120;11.548;2023-08-30T02:18:53;14.43;;;11.10;;
72864;SDS011;61000;48.120;11.548;2023-08-30T02:21:21;12.23;;;10.20;;
72864;SDS011;61000;48.120;11.548;2023-08-30T02:23:50;15.13;;;10.73;;
72864;SDS011;61000;48.120;11.548;2023-08-30T02:26:17;14.85;;;10.85;;
72864;SDS011;61000;48.120;11.548;2023-08-30T02:28:46;13.75;;;10.80;;
72864;SDS011;61000;48.120;11.548;2023-08-30T02:31:13;13.38;;;10.43;;
72864;SDS011;61000;48.120;11.548;2023-08-30T02:33:39;14.70;;;10.38;;
72864;SDS011;61000;48.120;11.548;2023-08-30T02:36:08;15.18;;;9.85;;
72864;SDS011;61000;48.120;11.548;2023-08-30T02:38:35;13.45;;;10.00;;
72864;SDS011;61000;48.120;11.548;2023-08-30T02:41:02;16.38;;;10.88;;
72864;SDS011;61000;48.120;11.548;2023-08-30T02:43:29;14.23;;;9.90;;
72864;SDS011;61000;48.120;11.548;2023-08-30T02:45:56;12.50;;;9.93;;
72864;SDS011;61000;48.120;11.548;2023-08-30T02:48:23;12.50;;;10.40;;
72864;SDS011;61000;48.120;11.548;2023-08-30T02:50:50;12.98;;;9.70;;
72864;SDS011;61000;48.120;11.548;2023-08-30T02:53:18;13.52;;;10.18;;
72864;SDS011;61000;48.120;11.548;2023-08-30T02:55:46;13.25;;;10.35;;
72864;SDS011;61000;48.120;11.548;2023-08-30T02:58:13;12.40;;;9.35;;
72864;SDS011;61000;48.120;11.548;2023-08-30T03:00:40;12.18;;;8.98;;
72864;SDS011;61000;48.120;11.548;2023-08-30T03:03:08;12.10;;;9.27;;
72864;SDS011;61000;48.120;11.548;2023-08-30T03:05:35;10.23;;;8.43;;
72864;SDS011;61000;48.120;11.548;2023-08-30T03:08:03;10.85;;;8.57;;
72864;SDS011;61000;48.120;11.548;2023-08-30T03:10:34;10.52;;;8.82;;
72864;SDS011;61000;48.120;11.548;2023-08-30T03:13:01;11.00;;;8.43;;
72864;SDS011;61000;48.120;11.548;2023-08-30T03:15:30;11.45;;;8.90;;
72864;SDS011;61000;48.120;11.548;2023-08-30T03:17:57;11.55;;;9.30;;
72864;SDS011;61000;48.120;11.548;2023-08-30T03:20:25;9.80;;;8.38;;
72864;SDS011;61000;48.120;11.548;2023-08-30T03:22:55;12.50;;;9.20;;
72864;SDS011;61000;48.120;11.548;2023-08-30T03:25:22;11.35;;;8.80;;
72864;SDS011;61000;48.120;11.548;2023-08-30T03:27:50;13.85;;;9.68;;
72864;SDS011;61000;48.120;11.548;2023-08-30T03:30:17;11.15;;;9.00;;
72864;SDS011;61000;48.120;11.548;2023-08-30T03:32:44;12.95;;;9.43;;
72864;SDS011;61000;48.120;11.548;2023-08-30T03:35:11;12.35;;;8.88;;
72864;SDS011;61000;48.120;11.548;2023-08-30T03:37:40;13.40;;;8.25;;
72864;SDS011;61000;48.120;11.548;2023-08-30T03:40:07;11.00;;;8.80;;
72864;SDS011;61000;48.120;11.548;2023-08-30T03:42:34;14.20;;;9.20;;
72864;SDS011;61000;48.120;11.548;2023-08-30T03:45:04;14.52;;;9.52;;
72864;SDS011;61000;48.120;11.548;2023-08-30T03:47:32;10.23;;;8.55;;
72864;SDS011;61000;48.120;11.548;2023-08-30T03:49:59;15.73;;;8.88;;
72864;SDS011;61000;48.120;11.548;2023-08-30T03:52:26;11.32;;;9.35;;
72864;SDS011;61000;48.120;11.548;2023-08-30T03:54:54;11.88;;;8.32;;
72864;SDS011;61000;48.120;11.548;2023-08-30T03:57:21;11.00;;;8.80;;
72864;SDS011;61000;48.120;11.548;2023-08-30T03:59:48;10.25;;;8.68;;
72864;SDS011;61000;48.120;11.548;2023-08-30T04:02:16;10.38;;;8.70;;
72864;SDS011;61000;48.120;11.548;2023-08-30T04:04:43;10.98;;;8.32;;
72864;SDS011;61000;48.120;11.548;2023-08-30T04:07:12;11.63;;;8.43;;
72864;SDS011;61000;48.120;11.548;2023-08-30T04:09:40;10.55;;;8.60;;
72864;SDS011;61000;48.120;11.548;2023-08-30T04:12:07;11.35;;;8.20;;
72864;SDS011;61000;48.120;11.548;2023-08-30T04:14:33;9.68;;;8.23;;
72864;SDS011;61000;48.120;11.548;2023-08-30T04:17:01;9.43;;;8.02;;
72864;SDS011;61000;48.120;11.548;2023-08-30T04:19:30;10.23;;;8.23;;
72864;SDS011;61000;48.120;11.548;2023-08-30T04:21:56;9.57;;;7.63;;
72864;SDS011;61000;48.120;11.548;2023-08-30T04:24:22;11.90;;;8.50;;
72864;SDS011;61000;48.120;11.548;2023-08-30T04:26:49;10.63;;;8.60;;
72864;SDS011;61000;48.120;11.548;2023-08-30T04:29:18;11.63;;;7.97;;
72864;SDS011;61000;48.120;11.548;2023-08-30T04:31:45;12.27;;;8.75;;
72864;SDS011;61000;48.120;11.548;2023-08-30T04:34:12;10.20;;;8.45;;
72864;SDS011;61000;48.120;11.548;2023-08-30T04:36:40;9.20;;;7.30;;
72864;SDS011;61000;48.120;11.548;2023-08-30T04:39:08;9.50;;;7.72;;
72864;SDS011;61000;48.120;11.548;2023-08-30T04:41:36;10.40;;;8.52;;
72864;SDS011;61000;48.120;11.548;2023-08-30T04:44:03;9.10;;;7.47;;
72864;SDS011;61000;48.120;11.548;2023-08-30T04:46:30;10.02;;;7.57;;
72864;SDS011;61000;48.120;11.548;2023-08-30T04:48:57;8.98;;;7.43;;
72864;SDS011;61000;48.120;11.548;2023-08-30T04:51:24;10.95;;;7.88;;
72864;SDS011;61000;48.120;11.548;2023-08-30T04:53:52;10.73;;;9.63;;
72864;SDS011;61000;48.120;11.548;2023-08-30T04:56:19;12.68;;;8.18;;
72864;SDS011;61000;48.120;11.548;2023-08-30T04:58:46;14.27;;;8.70;;
72864;SDS011;61000;48.120;11.548;2023-08-30T05:01:13;9.57;;;7.63;;
72864;SDS011;61000;48.120;11.548;2023-08-30T05:03:44;11.23;;;8.52;;
72864;SDS011;61000;48.120;11.548;2023-08-30T05:06:13;12.15;;;7.53;;
72864;SDS011;61000;48.120;11.548;2023-08-30T05:08:41;10.10;;;8.30;;
72864;SDS011;61000;48.120;11.548;2023-08-30T05:11:09;9.60;;;8.10;;
72864;SDS011;61000;48.120;11.548;2023-08-30T05:13:37;11.45;;;8.68;;
72864;SDS011;61000;48.120;11.548;2023-08-30T05:16:04;9.80;;;7.93;;
72864;SDS011;61000;48.120;11.548;2023-08-30T05:18:31;9.63;;;7.57;;
72864;SDS011;61000;48.120;11.548;2023-08-30T05:21:00;11.05;;;8.27;;
72864;SDS011;61000;48.120;11.548;2023-08-30T05:23:29;10.30;;;7.53;;
72864;SDS011;61000;48.120;11.548;2023-08-30T05:25:56;11.13;;;8.88;;
72864;SDS011;61000;48.120;11.548;2023-08-30T05:28:24;13.32;;;8.90;;
72864;SDS011;61000;48.120;11.548;2023-08-30T05:30:51;12.95;;;8.02;;
72864;SDS011;61000;48.120;11.548;2023-08-30T05:33:53;9.27;;;8.07;;
72864;SDS011;61000;48.120;11.548;2023-08-30T05:36:43;13.75;;;9.30;;
72864;SDS011;61000;48.120;11.548;2023-08-30T05:39:23;10.00;;;8.68;;
72864;SDS011;61000;48.120;11.548;2023-08-30T05:41:54;9.63;;;8.30;;
72864;SDS011;61000;48.120;11.548;2023-08-30T05:44:23;10.02;;;8.57;;
72864;SDS011;61000;48.120;11.548;2023-08-30T05:46:50;10.35;;;8.85;;
72864;SDS011;61000;48.120;11.548;2023-08-30T05:49:17;9.38;;;8.32;;
72864;SDS011;61000;48.120;11.548;2023-08-30T05:51:44;10.93;;;8.50;;
72864;SDS011;61000;48.120;11.548;2023-08-30T05:54:12;11.13;;;9.25;;
72864;SDS011;61000;48.120;11.548;2023-08-30T05:56:39;11.75;;;9.88;;
72864;SDS011;61000;48.120;11.548;2023-08-30T05:59:07;10.32;;;9.00;;
72864;SDS011;61000;48.120;11.548;2023-08-30T06:01:35;11.23;;;8.63;;
72864;SDS011;61000;48.120;11.548;2023-08-30T06:04:02;13.65;;;9.80;;
72864;SDS011;61000;48.120;11.548;2023-08-30T06:06:30;11.95;;;9.55;;
72864;SDS011;61000;48.120;11.548;2023-08-30T06:08:57;10.88;;;8.60;;
72864;SDS011;61000;48.120;11.548;2023-08-30T06:11:25;12.93;;;9.20;;
72864;SDS011;61000;48.120;11.548;2023-08-30T06:13:51;10.50;;;8.25;;
72864;SDS011;61000;48.120;11.548;2023-08-30T06:16:18;9.70;;;7.68;;
72864;SDS011;61000;48.120;11.548;2023-08-30T06:18:46;10.50;;;7.75;;
72864;SDS011;61000;48.120;11.548;2023-08-30T06:21:13;10.10;;;8.50;;
72864;SDS011;61000;48.120;11.548;2023-08-30T06:23:40;10.30;;;8.00;;
72864;SDS011;61000;48.120;11.548;2023-08-30T06:26:07;9.40;;;8.18;;
72864;SDS011;61000;48.120;11.548;2023-08-30T06:28:34;9.65;;;8.38;;
72864;SDS011;61000;48.120;11.548;2023-08-30T06:31:01;11.18;;;7.85;;
72864;SDS011;61000;48.120;11.548;2023-08-30T06:33:27;10.50;;;8.63;;
72864;SDS011;61000;48.120;11.548;2023-08-30T06:35:56;8.80;;;6.93;;
72864;SDS011;61000;48.120;11.548;2023-08-30T06:38:22;10.02;;;8.73;;
72864;SDS011;61000;48.120;11.548;2023-08-30T06:40:49;9.68;;;7.60;;
72864;SDS011;61000;48.120;11.548;2023-08-30T06:43:16;9.60;;;7.43;;
72864;SDS011;61000;48.120;11.548;2023-08-30T06:45:43;10.52;;;8.27;;
72864;SDS011;61000;48.120;11.548;2023-08-30T06:48:11;8.98;;;7.53;;
72864;SDS011;61000;48.120;11.548;2023-08-30T06:50:38;9.55;;;7.88;;
72864;SDS011;61000;48.120;11.548;2023-08-30T06:53:06;8.07;;;7.10;;
72864;SDS011;61000;48.120;11.548;2023-08-30T06:55:34;9.10;;;6.60;;
72864;SDS011;61000;48.120;11.548;2023-08-30T06:58:02;8.30;;;7.35;;
72864;SDS011;61000;48.120;11.548;2023-08-30T07:00:29;10.52;;;7.15;;
72864;SDS011;61000;48.120;11.548;2023-08-30T07:02:56;8.35;;;7.20;;
72864;SDS011;61000;48.120;11.548;2023-08-30T07:05:23;8.60;;;7.05;;
72864;SDS011;61000;48.120;11.548;2023-08-30T07:07:49;9.45;;;7.32;;
72864;SDS011;61000;48.120;11.548;2023-08-30T07:10:18;10.50;;;6.75;;
72864;SDS011;61000;48.120;11.548;2023-08-30T07:12:45;8.88;;;7.82;;
72864;SDS011;61000;48.120;11.548;2023-08-30T07:15:13;8.13;;;7.22;;
72864;SDS011;61000;48.120;11.548;2023-08-30T07:17:42;8.82;;;7.15;;
72864;SDS011;61000;48.120;11.548;2023-08-30T07:20:09;7.93;;;7.07;;
72864;SDS011;61000;48.120;11.548;2023-08-30T07:22:36;7.93;;;7.13;;
72864;SDS011;61000;48.120;11.548;2023-08-30T07:25:03;7.47;;;6.72;;
72864;SDS011;61000;48.120;11.548;2023-08-30T07:27:32;9.95;;;7.72;;
72864;SDS011;61000;48.120;11.548;2023-08-30T07:29:59;7.95;;;7.07;;
72864;SDS011;61000;48.120;11.548;2023-08-30T07:32:26;8.43;;;7.55;;
72864;SDS011;61000;48.120;11.548;2023-08-30T07:34:53;9.93;;;7.28;;
72864;SDS011;61000;48.120;11.548;2023-08-30T07:37:20;8.45;;;7.55;;
72864;SDS011;61000;48.120;11.548;2023-08-30T07:39:47;8.38;;;7.57;;
72864;SDS011;61000;48.120;11.548;2023-08-30T07:42:14;8.55;;;7.63;;
72864;SDS011;61000;48.120;11.548;2023-08-30T07:44:42;8.07;;;7.28;;
72864;SDS011;61000;48.120;11.548;2023-08-30T07:47:09;8.73;;;7.47;;
72864;SDS011;61000;48.120;11.548;2023-08-30T07:49:36;9.20;;;8.23;;
72864;SDS011;61000;48.120;11.548;2023-08-30T07:52:03;9.73;;;8.50;;
72864;SDS011;61000;48.120;11.548;2023-08-30T07:54:30;11.60;;;8.75;;
72864;SDS011;61000;48.120;11.548;2023-08-30T07:56:57;10.45;;;8.85;;
72864;SDS011;61000;48.120;11.548;2023-08-30T07:59:24;10.95;;;8.70;;
72864;SDS011;61000;48.120;11.548;2023-08-30T08:01:52;9.70;;;8.48;;
72864;SDS011;61000;48.120;11.548;2023-08-30T08:04:19;8.95;;;7.97;;
72864;SDS011;61000;48.120;11.548;2023-08-30T08:06:46;10.05;;;8.93;;
72864;SDS011;61000;48.120;11.548;2023-08-30T08:09:13;10.13;;;8.43;;
72864;SDS011;61000;48.120;11.548;2023-08-30T08:11:40;13.98;;;8.88;;
72864;SDS011;61000;48.120;11.548;2023-08-30T08:14:08;8.43;;;7.53;;
72864;SDS011;61000;48.120;11.548;2023-08-30T08:16:36;9.52;;;8.48;;
72864;SDS011;61000;48.120;11.548;2023-08-30T08:19:04;8.70;;;7.80;;
72864;SDS011;61000;48.120;11.548;2023-08-30T08:21:32;9.68;;;8.65;;
72864;SDS011;61000;48.120;11.548;2023-08-30T08:23:59;9.10;;;8.20;;
72864;SDS011;61000;48.120;11.548;2023-08-30T08:26:26;13.07;;;8.18;;
72864;SDS011;61000;48.120;11.548;2023-08-30T08:28:53;10.10;;;8.50;;
72864;SDS011;61000;48.120;11.548;2023-08-30T08:31:20;9.52;;;8.52;;
72864;SDS011;61000;48.120;11.548;2023-08-30T08:33:49;9.23;;;8.27;;
72864;SDS011;61000;48.120;11.548;2023-08-30T08:36:18;9.38;;;8.40;;
72864;SDS011;61000;48.120;11.548;2023-08-30T08:38:45;9.45;;;8.35;;
72864;SDS011;61000;48.120;11.548;2023-08-30T08:41:12;10.77;;;8.30;;
72864;SDS011;61000;48.120;11.548;2023-08-30T08:43:41;8.45;;;7.65;;
72864;SDS011;61000;48.120;11.548;2023-08-30T08:46:09;9.60;;;7.28;;
72864;SDS011;61000;48.120;11.548;2023-08-30T08:48:39;8.70;;;7.68;;
72864;SDS011;61000;48.120;11.548;2023-08-30T08:51:07;8.57;;;7.70;;
72864;SDS011;61000;48.120;11.548;2023-08-30T08:53:35;8.10;;;7.32;;
72864;SDS011;61000;48.120;11.548;2023-08-30T08:56:03;8.00;;;7.25;;
72864;SDS011;61000;48.120;11.548;2023-08-30T08:58:33;8.25;;;7.30;;
72864;SDS011;61000;48.120;11.548;2023-08-30T09:01:03;8.70;;;6.78;;
72864;SDS011;61000;48.120;11.548;2023-08-30T09:03:30;8.77;;;6.68;;
72864;SDS011;61000;48.120;11.548;2023-08-30T09:06:00;6.63;;;5.93;;
72864;SDS011;61000;48.120;11.548;2023-08-30T09:08:28;7.53;;;6.60;;
72864;SDS011;61000;48.120;11.548;2023-08-30T09:10:57;8.23;;;7.32;;
72864;SDS011;61000;48.120;11.548;2023-08-30T09:13:24;9.63;;;6.78;;
72864;SDS011;61000;48.120;11.548;2023-08-30T09:15:51;7.53;;;6.28;;
72864;SDS011;61000;48.120;11.548;2023-08-30T09:18:18;6.57;;;5.97;;
72864;SDS011;61000;48.120;11.548;2023-08-30T09:20:45;7.15;;;6.32;;
72864;SDS011;61000;48.120;11.548;2023-08-30T09:23:18;7.25;;;6.10;;
72864;SDS011;61000;48.120;11.548;2023-08-30T09:25:46;8.75;;;6.10;;
72864;SDS011;61000;48.120;11.548;2023-08-30T09:28:14;6.55;;;5.72;;
72864;SDS011;61000;48.120;11.548;2023-08-30T09:30:41;6.00;;;5.43;;
72864;SDS011;61000;48.120;11.548;2023-08-30T09:33:08;9.20;;;6.43;;
72864;SDS011;61000;48.120;11.548;2023-08-30T09:35:43;5.85;;;5.25;;
72864;SDS011;61000;48.120;11.548;2023-08-30T09:38:15;5.60;;;5.10;;
72864;SDS011;61000;48.120;11.548;2023-08-30T09:40:44;5.25;;;4.75;;
72864;SDS011;61000;48.120;11.548;2023-08-30T09:43:11;4.70;;;4.32;;
72864;SDS011;61000;48.120;11.548;2023-08-30T09:45:39;4.30;;;3.92;;
72864;SDS011;61000;48.120;11.548;2023-08-30T09:48:07;4.38;;;4.07;;
72864;SDS011;61000;48.120;11.548;2023-08-30T09:50:34;4.82;;;3.60;;
72864;SDS011;61000;48.120;11.548;2023-08-30T09:53:02;6.60;;;4.70;;
72864;SDS011;61000;48.120;11.548;2023-08-30T09:55:33;4.70;;;4.20;;
72864;SDS011;61000;48.120;11.548;2023-08-30T09:58:01;5.35;;;4.28;;
72864;SDS011;61000;48.120;11.548;2023-08-30T10:00:29;3.90;;;3.60;;
72864;SDS011;61000;48.120;11.548;2023-08-30T10:02:58;4.55;;;4.15;;
72864;SDS011;61000;48.120;11.548;2023-08-30T10:05:26;4.07;;;3.67;;
72864;SDS011;61000;48.120;11.548;2023-08-30T10:07:53;4.10;;;3.78;;
72864;SDS011;61000;48.120;11.548;2023-08-30T10:10:21;3.40;;;3.10;;
72864;SDS011;61000;48.120;11.548;2023-08-30T10:12:48;3.35;;;3.05;;
72864;SDS011;61000;48.120;11.548;2023-08-30T10:15:16;3.08;;;2.88;;
72864;SDS011;61000;48.120;11.548;2023-08-30T10:17:44;4.68;;;3.20;;
72864;SDS011;61000;48.120;11.548;2023-08-30T10:20:13;2.65;;;2.33;;
72864;SDS011;61000;48.120;11.548;2023-08-30T10:22:41;3.03;;;2.40;;
72864;SDS011;61000;48.120;11.548;2023-08-30T10:25:10;2.05;;;1.85;;
72864;SDS011;61000;48.120;11.548;2023-08-30T10:27:42;2.65;;;2.45;;
72864;SDS011;61000;48.120;11.548;2023-08-30T10:30:11;3.65;;;1.95;;
72864;SDS011;61000;48.120;11.548;2023-08-30T10:32:39;2.75;;;1.80;;
72864;SDS011;61000;48.120;11.548;2023-08-30T10:35:06;2.05;;;1.85;;
72864;SDS011;61000;48.120;11.548;2023-08-30T10:37:38;1.75;;;1.60;;
72864;SDS011;61000;48.120;11.548;2023-08-30T10:40:06;2.08;;;1.88;;
72864;SDS011;61000;48.120;11.548;2023-08-30T10:42:34;1.90;;;1.80;;
72864;SDS011;61000;48.120;11.548;2023-08-30T10:45:01;2.38;;;1.92;;
72864;SDS011;61000;48.120;11.548;2023-08-30T10:47:31;1.92;;;1.50;;
72864;SDS011;61000;48.120;11.548;2023-08-30T10:50:04;2.33;;;2.00;;
72864;SDS011;61000;48.120;11.548;2023-08-30T10:52:32;2.35;;;2.00;;
72864;SDS011;61000;48.120;11.548;2023-08-30T10:55:07;2.40;;;1.80;;
72864;SDS011;61000;48.120;11.548;2023-08-30T10:57:34;1.90;;;1.80;;
72864;SDS011;61000;48.120;11.548;2023-08-30T11:00:05;3.33;;;2.03;;
72864;SDS011;61000;48.120;11.548;2023-08-30T11:02:33;3.38;;;1.90;;
72864;SDS011;61000;48.120;11.548;2023-08-30T11:05:01;2.08;;;1.65;;
72864;SDS011;61000;48.120;11.548;2023-08-30T11:07:29;5.57;;;2.40;;
72864;SDS011;61000;48.120;11.548;2023-08-30T11:09:55;2.22;;;1.70;;
72864;SDS011;61000;48.120;11.548;2023-08-30T11:12:24;4.45;;;2.13;;
72864;SDS011;61000;48.120;11.548;2023-08-30T11:14:52;4.22;;;2.05;;
72864;SDS011;61000;48.120;11.548;2023-08-30T11:17:20;4.28;;;2.55;;
72864;SDS011;61000;48.120;11.548;2023-08-30T11:19:49;6.18;;;2.30;;
72864;SDS011;61000;48.120;11.548;2023-08-30T11:22:17;11.90;;;2.40;;
72864;SDS011;61000;48.120;11.548;2023-08-30T11:24:46;9.60;;;2.50;;
72864;SDS011;61000;48.120;11.548;2023-08-30T11:27:16;2.08;;;1.77;;
72864;SDS011;61000;48.120;11.548;2023-08-30T11:29:44;1.63;;;1.50;;
72864;SDS011;61000;48.120;11.548;2023-08-30T11:32:11;2.60;;;1.70;;
72864;SDS011;61000;48.120;11.548;2023-08-30T11:34:38;3.83;;;1.90;;
72864;SDS011;61000;48.120;11.548;2023-08-30T11:37:05;1.90;;;1.70;;
72864;SDS011;61000;48.120;11.548;2023-08-30T11:39:33;3.95;;;1.90;;
72864;SDS011;61000;48.120;11.548;2023-08-30T11:42:02;5.70;;;2.03;;
72864;SDS011;61000;48.120;11.548;2023-08-30T11:44:30;2.67;;;1.48;;
72864;SDS011;61000;48.120;11.548;2023-08-30T11:46:59;2.10;;;1.90;;
72864;SDS011;61000;48.120;11.548;2023-08-30T11:49:26;3.15;;;1.98;;
72864;SDS011;61000;48.120;11.548;2023-08-30T11:51:54;5.55;;;1.95;;
72864;SDS011;61000;48.120;11.548;2023-08-30T11:54:23;4.10;;;2.00;;
72864;SDS011;61000;48.120;11.548;2023-08-30T11:56:50;4.90;;;1.90;;
72864;SDS011;61000;48.120;11.548;2023-08-30T11:59:18;2.45;;;1.80;;
72864;SDS011;61000;48.120;11.548;2023-08-30T12:01:46;2.85;;;1.70;;
72864;SDS011;61000;48.120;11.548;2023-08-30T12:04:14;2.30;;;1.55;;
72864;SDS011;61000;48.120;11.548;2023-08-30T12:06:43;1.75;;;1.60;;
72864;SDS011;61000;48.120;11.548;2023-08-30T12:09:16;1.80;;;1.70;;
72864;SDS011;61000;48.120;11.548;2023-08-30T12:11:46;3.63;;;1.80;;
72864;SDS011;61000;48.120;11.548;2023-08-30T12:14:13;5.18;;;1.88;;
72864;SDS011;61000;48.120;11.548;2023-08-30T12:16:40;5.53;;;1.90;;
72864;SDS011;61000;48.120;11.548;2023-08-30T12:19:07;5.75;;;1.50;;
72864;SDS011;61000;48.120;11.548;2023-08-30T12:21:40;3.88;;;1.90;;
72864;SDS011;61000;48.120;11.548;2023-08-30T12:24:07;1.88;;;1.70;;
72864;SDS011;61000;48.120;11.548;2023-08-30T12:26:34;2.28;;;1.50;;
72864;SDS011;61000;48.120;11.548;2023-08-30T12:29:03;1.67;;;1.58;;
72864;SDS011;61000;48.120;11.548;2023-08-30T12:31:30;1.63;;;1.50;;
72864;SDS011;61000;48.120;11.548;2023-08-30T12:33:57;1.88;;;1.77;;
72864;SDS011;61000;48.120;11.548;2023-08-30T12:36:24;2.95;;;2.03;;
72864;SDS011;61000;48.120;11.548;2023-08-30T12:38:52;2.42;;;2.00;;
72864;SDS011;61000;48.120;11.548;2023-08-30T12:41:19;2.80;;;1.65;;
72864;SDS011;61000;48.120;11.548;2023-08-30T12:43:48;1.60;;;1.50;;
72864;SDS011;61000;48.120;11.548;2023-08-30T12:46:15;4.15;;;1.80;;
72864;SDS011;61000;48.120;11.548;2023-08-30T12:48:42;3.45;;;3.15;;
72864;SDS011;61000;48.120;11.548;2023-08-30T12:51:09;1.83;;;1.60;;
72864;SDS011;61000;48.120;11.548;2023-08-30T12:53:35;6.00;;;1.90;;
72864;SDS011;61000;48.120;11.548;2023-08-30T12:56:04;5.75;;;1.60;;
72864;SDS011;61000;48.120;11.548;2023-08-30T12:58:31;4.55;;;1.52;;
72864;SDS011;61000;48.120;11.548;2023-08-30T13:00:57;5.38;;;1.40;;
72864;SDS011;61000;48.120;11.548;2023-08-30T13:03:24;3.58;;;1.48;;
72864;SDS011;61000;48.120;11.548;2023-08-30T13:05:51;1.42;;;1.33;;
72864;SDS011;61000;48.120;11.548;2023-08-30T13:08:18;3.40;;;1.35;;
72864;SDS011;61000;48.120;11.548;2023-08-30T13:10:45;7.72;;;1.60;;
72864;SDS011;61000;48.120;11.548;2023-08-30T13:13:13;3.35;;;1.27;;
72864;SDS011;61000;48.120;11.548;2023-08-30T13:15:40;1.60;;;1.50;;
72864;SDS011;61000;48.120;11.548;2023-08-30T13:18:09;2.15;;;1.23;;
72864;SDS011;61000;48.120;11.548;2023-08-30T13:20:37;3.60;;;1.40;;
72864;SDS011;61000;48.120;11.548;2023-08-30T13:23:05;1.40;;;1.30;;
72864;SDS011;61000;48.120;11.548;2023-08-30T13:25:37;1.50;;;1.40;;
72864;SDS011;61000;48.120;11.548;2023-08-30T13:28:05;1.70;;;1.60;;
72864;SDS011;61000;48.120;11.548;2023-08-30T13:30:33;1.25;;;1.15;;
72864;SDS011;61000;48.120;11.548;2023-08-30T13:33:00;1.95;;;1.40;;
72864;SDS011;61000;48.120;11.548;2023-08-30T13:35:27;4.88;;;1.50;;
72864;SDS011;61000;48.120;11.548;2023-08-30T13:37:54;2.03;;;1.50;;
72864;SDS011;61000;48.120;11.548;2023-08-30T13:40:21;2.08;;;1.58;;
72864;SDS011;61000;48.120;11.548;2023-08-30T13:42:47;5.00;;;1.95;;
72864;SDS011;61000;48.120;11.548;2023-08-30T13:45:14;2.53;;;2.33;;
72864;SDS011;61000;48.120;11.548;2023-08-30T13:47:42;3.42;;;2.05;;
72864;SDS011;61000;48.120;11.548;2023-08-30T13:50:10;5.80;;;2.50;;
72864;SDS011;61000;48.120;11.548;2023-08-30T13:52:37;4.28;;;2.70;;
72864;SDS011;61000;48.120;11.548;2023-08-30T13:55:04;3.10;;;2.03;;
72864;SDS011;61000;48.120;11.548;2023-08-30T13:57:31;2.95;;;2.20;;
72864;SDS011;61000;48.120;11.548;2023-08-30T13:59:58;7.00;;;2.45;;
72864;SDS011;61000;48.120;11.548;2023-08-30T14:02:29;3.58;;;2.53;;
72864;SDS011;61000;48.120;11.548;2023-08-30T14:04:58;5.63;;;1.98;;
72864;SDS011;61000;48.120;11.548;2023-08-30T14:07:25;4.28;;;2.67;;
72864;SDS011;61000;48.120;11.548;2023-08-30T14:09:52;5.57;;;2.80;;
72864;SDS011;61000;48.120;11.548;2023-08-30T14:12:19;6.07;;;2.90;;
72864;SDS011;61000;48.120;11.548;2023-08-30T14:14:46;3.53;;;2.80;;
72864;SDS011;61000;48.120;11.548;2023-08-30T14:17:13;3.22;;;2.88;;
72864;SDS011;61000;48.120;11.548;2023-08-30T14:19:39;3.65;;;3.05;;
72864;SDS011;61000;48.120;11.548;2023-08-30T14:22:08;3.80;;;2.63;;
72864;SDS011;61000;48.120;11.548;2023-08-30T14:24:34;4.47;;;3.65;;
72864;SDS011;61000;48.120;11.548;2023-08-30T14:27:01;4.82;;;3.22;;
72864;SDS011;61000;48.120;11.548;2023-08-30T14:29:29;4.90;;;3.35;;
72864;SDS011;61000;48.120;11.548;2023-08-30T14:31:56;5.78;;;3.70;;